Genco Predator — V7GK2 — position and weather

sailwx.info

Track history (hours):
 
Tides and Currents Weather Stations Pressure Air Temp Water Temp Dewpoint Dewpoint Depression Visibility Wind Speed Wind Dir Waves Ship Positions

Genco Predator

Last reported at 2017-Nov-22 21:43 UTC. Time now 2017-Dec-11 14:59 UTC.
Position S 24°11' W 045°52'.
Warning: this ship's position is 18 days out of date.

Length 190 m; draft 6.2 m.

Type: Cargo ship. MMSI: 538002113.

Date/timePositionNaut miles runAvg speedWind from/ knotsBaromVisibWave heightAir tempDewpointWater temp
2017-Nov-22 21:43S 24°11' W 045°52'311.8
2017-Nov-22 21:28S 24°11' W 045°55'511.7
2017-Nov-22 21:00S 24°11' W 046°01'611.9
2017-Nov-22 20:30S 24°11' W 046°08'612.1
2017-Nov-22 20:00S 24°12' W 046°14'5 9.3
2017-Nov-22 19:30S 24°10' W 046°19'  
2017-Nov-20 00:28S 24°06' W 046°20'0 0.0
2017-Nov-19 23:55S 24°06' W 046°20'0 0.0
2017-Nov-19 23:25S 24°06' W 046°20'0 0.0
2017-Nov-19 22:58S 24°06' W 046°20'0 0.0
2017-Nov-19 22:25S 24°06' W 046°20'0 0.1
2017-Nov-19 21:58S 24°06' W 046°20'0 0.1
2017-Nov-19 21:25S 24°06' W 046°20'0 0.0
2017-Nov-19 20:58S 24°06' W 046°20'0 0.1
2017-Nov-19 20:28S 24°06' W 046°20'0 0.0
2017-Nov-19 19:55S 24°06' W 046°20'0 0.0
2017-Nov-19 19:22S 24°06' W 046°20'0 0.0
2017-Nov-19 18:58S 24°06' W 046°20'0 0.0
2017-Nov-19 18:28S 24°06' W 046°20'0 0.0
2017-Nov-19 17:55S 24°06' W 046°20'0 0.1
2017-Nov-19 17:25S 24°06' W 046°20'0 0.0
2017-Nov-19 16:58S 24°06' W 046°20'0 0.0
2017-Nov-19 16:25S 24°06' W 046°20'0 0.0
2017-Nov-19 15:55S 24°06' W 046°20'0 0.0
2017-Nov-19 15:28S 24°06' W 046°20'0 0.0
2017-Nov-19 14:55S 24°06' W 046°20'0 0.0
2017-Nov-19 14:28S 24°06' W 046°20'0 0.0
2017-Nov-19 13:55S 24°06' W 046°20'0 0.0
2017-Nov-19 13:28S 24°06' W 046°20'0 0.0
2017-Nov-19 12:55S 24°06' W 046°20'0 0.0
2017-Nov-19 12:19S 24°06' W 046°20'0 0.1
2017-Nov-19 11:58S 24°06' W 046°20'0 0.0
2017-Nov-19 11:28S 24°06' W 046°20'0 0.0
2017-Nov-19 10:55S 24°06' W 046°20'0 0.0
2017-Nov-19 10:22S 24°06' W 046°20'0 0.0
2017-Nov-19 09:58S 24°06' W 046°20'0 0.7
2017-Nov-19 09:30S 24°07' W 046°20'2 3.2
2017-Nov-19 09:00S 24°07' W 046°22'1 2.7
2017-Nov-19 08:30S 24°06' W 046°22'0 0.0
2017-Nov-19 08:00S 24°06' W 046°22'0 0.2
2017-Nov-19 07:30S 24°05' W 046°22'0 0.3
2017-Nov-19 07:00S 24°05' W 046°22'1 2.9
2017-Nov-19 06:30S 24°04' W 046°22'3 5.8
2017-Nov-19 06:00S 24°01' W 046°21'3 5.2
2017-Nov-19 05:30S 23°60' W 046°19'2 3.4
2017-Nov-19 05:01S 23°58' W 046°17'0 0.1
2017-Nov-19 04:12S 23°58' W 046°17'0 0.0
2017-Nov-19 03:55S 23°58' W 046°17'0 0.0
2017-Nov-19 02:46S 23°58' W 046°17'0 0.0
2017-Nov-19 02:25S 23°58' W 046°17'0 0.0
2017-Nov-19 01:58S 23°58' W 046°17'0 0.0
2017-Nov-19 01:25S 23°58' W 046°17'0 0.0
2017-Nov-19 00:58S 23°58' W 046°17'0 0.0
2017-Nov-19 00:19S 23°58' W 046°17'0 0.0
2017-Nov-18 23:55S 23°58' W 046°17'0 0.0
2017-Nov-18 23:25S 23°58' W 046°17'0 0.0
2017-Nov-18 22:55S 23°58' W 046°17'0 0.0
2017-Nov-18 22:19S 23°58' W 046°17'0 0.0
2017-Nov-18 21:52S 23°58' W 046°17'0 0.0
2017-Nov-18 21:28S 23°58' W 046°17'0 0.0
2017-Nov-18 20:55S 23°58' W 046°17'0 0.0
2017-Nov-18 20:28S 23°58' W 046°17'0 0.0
2017-Nov-18 19:49S 23°58' W 046°17'0 0.0
2017-Nov-18 19:25S 23°58' W 046°17'0 0.0
2017-Nov-18 18:49S 23°58' W 046°17'0 0.0
2017-Nov-18 18:22S 23°58' W 046°17'0 0.0
2017-Nov-18 17:55S 23°58' W 046°17'0 0.0
2017-Nov-18 17:25S 23°58' W 046°17'0 0.0
2017-Nov-18 16:49S 23°58' W 046°17'0 0.0
2017-Nov-18 16:25S 23°58' W 046°17'0 0.0
2017-Nov-18 15:55S 23°58' W 046°17'0 0.0
2017-Nov-18 15:25S 23°58' W 046°17'0 0.0
2017-Nov-18 14:46S 23°58' W 046°17'0 0.0
2017-Nov-18 14:25S 23°58' W 046°17'0 0.0
2017-Nov-18 13:58S 23°58' W 046°17'0 0.0
2017-Nov-18 13:28S 23°58' W 046°17'0 0.0
2017-Nov-18 12:55S 23°58' W 046°17'0 0.0
2017-Nov-18 12:25S 23°58' W 046°17'0 0.0
2017-Nov-18 11:49S 23°58' W 046°17'0 0.0
2017-Nov-18 11:19S 23°58' W 046°17'0 0.0
2017-Nov-18 10:46S 23°58' W 046°17'0 0.0
2017-Nov-18 10:25S 23°58' W 046°17'0 0.0
2017-Nov-18 09:58S 23°58' W 046°17'0 0.0
2017-Nov-18 09:13S 23°58' W 046°17'0 0.0
2017-Nov-18 08:55S 23°58' W 046°17'0 0.0
2017-Nov-18 08:28S 23°58' W 046°17'0 0.0
2017-Nov-18 07:49S 23°58' W 046°17'0 0.0
2017-Nov-18 07:28S 23°58' W 046°17'0 0.0
2017-Nov-18 06:52S 23°58' W 046°17'0 0.0
2017-Nov-18 06:25S 23°58' W 046°17'0 0.0
2017-Nov-18 05:58S 23°58' W 046°17'0 0.0
2017-Nov-18 05:28S 23°58' W 046°17'0 0.0
2017-Nov-18 04:58S 23°58' W 046°17'0 0.0
2017-Nov-18 04:25S 23°58' W 046°17'0 0.0
2017-Nov-18 03:58S 23°58' W 046°17'0 0.0
2017-Nov-18 03:13S 23°58' W 046°17'0 0.0
2017-Nov-18 02:58S 23°58' W 046°17'0 0.0
2017-Nov-18 02:25S 23°58' W 046°17'0 0.0
2017-Nov-18 01:46S 23°58' W 046°17'0 0.0
2017-Nov-18 01:28S 23°58' W 046°17'0 0.0
2017-Nov-18 00:49S 23°58' W 046°17'0 0.0
2017-Nov-18 00:25S 23°58' W 046°17'0 0.0
2017-Nov-17 23:49S 23°58' W 046°17'0 0.0
2017-Nov-17 23:25S 23°58' W 046°17'0 0.0
2017-Nov-17 22:49S 23°58' W 046°17'0 0.0
2017-Nov-17 22:25S 23°58' W 046°17'0 0.0
2017-Nov-17 21:55S 23°58' W 046°17'0 0.0
2017-Nov-17 21:16S 23°58' W 046°17'0 0.0
2017-Nov-17 20:55S 23°58' W 046°17'0 0.0
2017-Nov-17 19:31S 23°58' W 046°17'0 0.0
2017-Nov-17 19:25S 23°58' W 046°17'0 0.0
2017-Nov-17 18:52S 23°58' W 046°17'0 0.0
2017-Nov-17 18:22S 23°58' W 046°17'0 0.0
2017-Nov-17 17:55S 23°58' W 046°17'0 0.0
2017-Nov-17 17:16S 23°58' W 046°17'0 0.0
2017-Nov-17 16:55S 23°58' W 046°17'0 0.0
2017-Nov-17 16:25S 23°58' W 046°17'0 0.0
2017-Nov-17 15:37S 23°58' W 046°17'0 0.0
2017-Nov-17 15:19S 23°58' W 046°17'0 0.0
2017-Nov-17 14:43S 23°58' W 046°17'0 0.0
2017-Nov-17 14:25S 23°58' W 046°17'0 0.0
2017-Nov-17 13:49S 23°58' W 046°17'0 0.0
2017-Nov-17 13:25S 23°58' W 046°17'0 0.0
2017-Nov-17 12:49S 23°58' W 046°17'0 0.0
2017-Nov-17 11:13S 23°58' W 046°17'0 0.0
2017-Nov-17 10:55S 23°58' W 046°17'0 0.0
2017-Nov-17 10:25S 23°58' W 046°17'0 0.0
2017-Nov-17 09:37S 23°58' W 046°17'0 0.0
2017-Nov-17 09:22S 23°58' W 046°17'0 0.0
2017-Nov-17 08:55S 23°58' W 046°17'0 0.0
2017-Nov-17 04:37S 23°58' W 046°17'0 0.0
2017-Nov-17 04:25S 23°58' W 046°17'0 0.0
2017-Nov-17 03:55S 23°58' W 046°17'0 0.0
2017-Nov-17 02:55S 23°58' W 046°17'0 0.0
2017-Nov-17 02:25S 23°58' W 046°17'0 0.0
2017-Nov-17 01:55S 23°58' W 046°17'0 0.0
2017-Nov-17 01:25S 23°58' W 046°17'0 0.0
2017-Nov-17 00:55S 23°58' W 046°17'0 0.0
2017-Nov-17 00:28S 23°58' W 046°17'0 0.0
2017-Nov-16 23:55S 23°58' W 046°17'0 0.0
2017-Nov-16 23:25S 23°58' W 046°17'0 0.0
2017-Nov-16 22:55S 23°58' W 046°17'0 0.0
2017-Nov-16 22:25S 23°58' W 046°17'0 0.0
2017-Nov-16 21:55S 23°58' W 046°17'0 0.0
2017-Nov-16 21:22S 23°58' W 046°17'0 0.0
2017-Nov-16 20:49S 23°58' W 046°17'0 0.0
2017-Nov-16 20:25S 23°58' W 046°17'0 0.0
2017-Nov-16 19:31S 23°58' W 046°17'0 0.1
2017-Nov-16 19:25S 23°58' W 046°17'0 0.0
2017-Nov-16 18:37S 23°58' W 046°17'0 0.0
2017-Nov-16 18:25S 23°58' W 046°17'0 0.0
2017-Nov-16 17:58S 23°58' W 046°17'0 0.0
2017-Nov-16 17:25S 23°58' W 046°17'0 0.0
2017-Nov-16 16:55S 23°58' W 046°17'0 0.0
2017-Nov-16 16:25S 23°58' W 046°17'0 0.0
2017-Nov-16 15:46S 23°58' W 046°17'0 0.0
2017-Nov-16 15:25S 23°58' W 046°17'0 0.0
2017-Nov-16 14:43S 23°58' W 046°17'0 0.0
2017-Nov-16 14:25S 23°58' W 046°17'0 0.0
2017-Nov-16 13:55S 23°58' W 046°17'0 0.0
2017-Nov-16 13:19S 23°58' W 046°17'0 0.0
2017-Nov-16 12:49S 23°58' W 046°17'0 0.0
2017-Nov-16 12:25S 23°58' W 046°17'0 0.0
2017-Nov-16 11:43S 23°58' W 046°17'0 0.0
2017-Nov-16 11:22S 23°58' W 046°17'0 0.0
2017-Nov-16 10:49S 23°58' W 046°17'0 0.0
2017-Nov-16 10:25S 23°58' W 046°17'0 0.0
2017-Nov-16 09:58S 23°58' W 046°17'0 0.0
2017-Nov-16 09:28S 23°58' W 046°17'0 0.0
2017-Nov-16 08:55S 23°58' W 046°17'0 0.0
2017-Nov-16 08:16S 23°58' W 046°17'0 0.0
2017-Nov-16 07:58S 23°58' W 046°17'0 0.0
2017-Nov-16 07:25S 23°58' W 046°17'0 0.0
2017-Nov-16 06:49S 23°58' W 046°17'0 0.0
2017-Nov-16 06:22S 23°58' W 046°17'0 0.0
2017-Nov-16 05:43S 23°58' W 046°17'0 0.0
2017-Nov-16 05:19S 23°58' W 046°17'0 0.0
2017-Nov-16 04:55S 23°58' W 046°17'0 0.0
2017-Nov-16 04:16S 23°58' W 046°17'0 0.0
2017-Nov-15 20:25S 23°58' W 046°17'0 0.0
2017-Nov-15 19:58S 23°58' W 046°17'0 0.0
2017-Nov-15 19:28S 23°58' W 046°17'0 0.0
2017-Nov-15 18:49S 23°58' W 046°17'0 0.0
2017-Nov-15 18:28S 23°58' W 046°17'0 0.0
2017-Nov-15 17:58S 23°58' W 046°17'0 0.0
2017-Nov-15 17:22S 23°58' W 046°17'0 0.0
2017-Nov-15 16:43S 23°58' W 046°17'0 0.0
2017-Nov-15 16:19S 23°58' W 046°17'0 0.0
2017-Nov-15 14:25S 23°58' W 046°17'0 0.0
2017-Nov-15 12:37S 23°58' W 046°17'0 0.0
2017-Nov-15 08:07S 23°58' W 046°17'0 0.0
2017-Nov-14 20:25S 23°58' W 046°17'0 0.0
2017-Nov-14 19:51S 23°58' W 046°17'1 1.6
2017-Nov-14 19:30S 23°59' W 046°17'3 6.5
2017-Nov-14 19:00S 24°01' W 046°20'4 7.5
2017-Nov-14 18:30S 24°04' W 046°19'4 7.1
2017-Nov-14 18:00S 24°07' W 046°18'2 3.7
2017-Nov-14 17:26S 24°08' W 046°15'0 0.2
2017-Nov-14 16:56S 24°08' W 046°15'0 0.0
2017-Nov-14 16:26S 24°08' W 046°15'0 0.0
2017-Nov-14 15:56S 24°08' W 046°15'0 0.0
2017-Nov-14 15:26S 24°08' W 046°15'0 0.0
2017-Nov-14 14:59S 24°08' W 046°15'0 0.0
2017-Nov-14 14:26S 24°08' W 046°15'0 0.0
2017-Nov-14 13:56S 24°08' W 046°15'0 0.0
2017-Nov-14 13:26S 24°08' W 046°15'0 0.0
2017-Nov-14 12:56S 24°08' W 046°15'0 0.1
2017-Nov-14 12:29S 24°08' W 046°15'0 0.1
2017-Nov-14 11:56S 24°08' W 046°15'0 0.0
2017-Nov-14 11:20S 24°08' W 046°15'0 0.0
2017-Nov-14 10:53S 24°08' W 046°15'0 0.0
2017-Nov-14 10:26S 24°08' W 046°15'0 0.0
2017-Nov-14 09:44S 24°08' W 046°15'0 0.0
2017-Nov-14 09:26S 24°08' W 046°15'0 0.0
2017-Nov-14 08:56S 24°08' W 046°15'0 0.0
2017-Nov-14 08:26S 24°08' W 046°15'0 0.0
2017-Nov-14 07:56S 24°08' W 046°15'0 0.0
2017-Nov-14 07:29S 24°08' W 046°15'0 0.0
2017-Nov-14 06:56S 24°08' W 046°15'0 0.0
2017-Nov-14 06:26S 24°08' W 046°15'0 0.0
2017-Nov-14 05:56S 24°08' W 046°15'0 0.0
2017-Nov-14 05:29S 24°08' W 046°15'0 0.0
2017-Nov-14 04:56S 24°08' W 046°15'0 0.1
2017-Nov-14 04:29S 24°08' W 046°15'0 0.0
2017-Nov-14 03:53S 24°08' W 046°15'0 0.0
2017-Nov-14 03:29S 24°08' W 046°15'0 0.0
2017-Nov-14 02:56S 24°08' W 046°15'0 0.0
2017-Nov-14 02:29S 24°08' W 046°15'0 0.1
2017-Nov-14 01:56S 24°08' W 046°15'0 0.0
2017-Nov-14 01:29S 24°08' W 046°15'0 0.0
2017-Nov-14 00:56S 24°08' W 046°15'0 0.0
2017-Nov-14 00:29S 24°08' W 046°15'0 0.0
2017-Nov-13 23:44S 24°08' W 046°15'0 0.0
2017-Nov-13 23:26S 24°08' W 046°15'0 0.0
2017-Nov-13 22:56S 24°08' W 046°15'0 0.0
2017-Nov-13 22:26S 24°08' W 046°15'0 0.0
2017-Nov-13 21:59S 24°08' W 046°15'0 0.0
2017-Nov-13 01:56S 24°08' W 046°15'0 0.0
2017-Nov-13 01:29S 24°08' W 046°15'0 0.0
2017-Nov-13 00:59S 24°08' W 046°15'0 0.0
2017-Nov-13 00:26S 24°08' W 046°15'0 0.0
2017-Nov-12 23:56S 24°08' W 046°15'0 0.0
2017-Nov-12 23:26S 24°08' W 046°15'0 0.0
2017-Nov-12 22:59S 24°08' W 046°15'0 0.0
2017-Nov-12 22:26S 24°08' W 046°15'0 0.0
2017-Nov-12 21:56S 24°08' W 046°15'  
Track history (hours):
 
Tides and Currents Weather Stations Pressure Air Temp Water Temp Dewpoint Dewpoint Depression Visibility Wind Speed Wind Dir Waves Ship Positions

Genco Predator

Last reported at 2017-Nov-22 21:43 UTC. Time now 2017-Dec-11 14:59 UTC.
Position S 24°11' W 045°52'.
Warning: this ship's position is 18 days out of date.

Length 190 m; draft 6.2 m.

Type: Cargo ship. MMSI: 538002113.

Date/timePositionNaut miles runAvg speedWind from/ knotsBaromVisibWave heightAir tempDewpointWater temp
2017-Nov-22 21:43S 24°11' W 045°52'311.8
2017-Nov-22 21:28S 24°11' W 045°55'511.7
2017-Nov-22 21:00S 24°11' W 046°01'611.9
2017-Nov-22 20:30S 24°11' W 046°08'612.1
2017-Nov-22 20:00S 24°12' W 046°14'5 9.3
2017-Nov-22 19:30S 24°10' W 046°19'  
2017-Nov-20 00:28S 24°06' W 046°20'0 0.0
2017-Nov-19 23:55S 24°06' W 046°20'0 0.0
2017-Nov-19 23:25S 24°06' W 046°20'0 0.0
2017-Nov-19 22:58S 24°06' W 046°20'0 0.0
2017-Nov-19 22:25S 24°06' W 046°20'0 0.1
2017-Nov-19 21:58S 24°06' W 046°20'0 0.1
2017-Nov-19 21:25S 24°06' W 046°20'0 0.0
2017-Nov-19 20:58S 24°06' W 046°20'0 0.1
2017-Nov-19 20:28S 24°06' W 046°20'0 0.0
2017-Nov-19 19:55S 24°06' W 046°20'0 0.0
2017-Nov-19 19:22S 24°06' W 046°20'0 0.0
2017-Nov-19 18:58S 24°06' W 046°20'0 0.0
2017-Nov-19 18:28S 24°06' W 046°20'0 0.0
2017-Nov-19 17:55S 24°06' W 046°20'0 0.1
2017-Nov-19 17:25S 24°06' W 046°20'0 0.0
2017-Nov-19 16:58S 24°06' W 046°20'0 0.0
2017-Nov-19 16:25S 24°06' W 046°20'0 0.0
2017-Nov-19 15:55S 24°06' W 046°20'0 0.0
2017-Nov-19 15:28S 24°06' W 046°20'0 0.0
2017-Nov-19 14:55S 24°06' W 046°20'0 0.0
2017-Nov-19 14:28S 24°06' W 046°20'0 0.0
2017-Nov-19 13:55S 24°06' W 046°20'0 0.0
2017-Nov-19 13:28S 24°06' W 046°20'0 0.0
2017-Nov-19 12:55S 24°06' W 046°20'0 0.0
2017-Nov-19 12:19S 24°06' W 046°20'0 0.1
2017-Nov-19 11:58S 24°06' W 046°20'0 0.0
2017-Nov-19 11:28S 24°06' W 046°20'0 0.0
2017-Nov-19 10:55S 24°06' W 046°20'0 0.0
2017-Nov-19 10:22S 24°06' W 046°20'0 0.0
2017-Nov-19 09:58S 24°06' W 046°20'0 0.7
2017-Nov-19 09:30S 24°07' W 046°20'2 3.2
2017-Nov-19 09:00S 24°07' W 046°22'1 2.7
2017-Nov-19 08:30S 24°06' W 046°22'0 0.0
2017-Nov-19 08:00S 24°06' W 046°22'0 0.2
2017-Nov-19 07:30S 24°05' W 046°22'0 0.3
2017-Nov-19 07:00S 24°05' W 046°22'1 2.9
2017-Nov-19 06:30S 24°04' W 046°22'3 5.8
2017-Nov-19 06:00S 24°01' W 046°21'3 5.2
2017-Nov-19 05:30S 23°60' W 046°19'2 3.4
2017-Nov-19 05:01S 23°58' W 046°17'0 0.1
2017-Nov-19 04:12S 23°58' W 046°17'0 0.0
2017-Nov-19 03:55S 23°58' W 046°17'0 0.0
2017-Nov-19 02:46S 23°58' W 046°17'0 0.0
2017-Nov-19 02:25S 23°58' W 046°17'0 0.0
2017-Nov-19 01:58S 23°58' W 046°17'0 0.0
2017-Nov-19 01:25S 23°58' W 046°17'0 0.0
2017-Nov-19 00:58S 23°58' W 046°17'0 0.0
2017-Nov-19 00:19S 23°58' W 046°17'0 0.0
2017-Nov-18 23:55S 23°58' W 046°17'0 0.0
2017-Nov-18 23:25S 23°58' W 046°17'0 0.0
2017-Nov-18 22:55S 23°58' W 046°17'0 0.0
2017-Nov-18 22:19S 23°58' W 046°17'0 0.0
2017-Nov-18 21:52S 23°58' W 046°17'0 0.0
2017-Nov-18 21:28S 23°58' W 046°17'0 0.0
2017-Nov-18 20:55S 23°58' W 046°17'0 0.0
2017-Nov-18 20:28S 23°58' W 046°17'0 0.0
2017-Nov-18 19:49S 23°58' W 046°17'0 0.0
2017-Nov-18 19:25S 23°58' W 046°17'0 0.0
2017-Nov-18 18:49S 23°58' W 046°17'0 0.0
2017-Nov-18 18:22S 23°58' W 046°17'0 0.0
2017-Nov-18 17:55S 23°58' W 046°17'0 0.0
2017-Nov-18 17:25S 23°58' W 046°17'0 0.0
2017-Nov-18 16:49S 23°58' W 046°17'0 0.0
2017-Nov-18 16:25S 23°58' W 046°17'0 0.0
2017-Nov-18 15:55S 23°58' W 046°17'0 0.0
2017-Nov-18 15:25S 23°58' W 046°17'0 0.0
2017-Nov-18 14:46S 23°58' W 046°17'0 0.0
2017-Nov-18 14:25S 23°58' W 046°17'0 0.0
2017-Nov-18 13:58S 23°58' W 046°17'0 0.0
2017-Nov-18 13:28S 23°58' W 046°17'0 0.0
2017-Nov-18 12:55S 23°58' W 046°17'0 0.0
2017-Nov-18 12:25S 23°58' W 046°17'0 0.0
2017-Nov-18 11:49S 23°58' W 046°17'0 0.0
2017-Nov-18 11:19S 23°58' W 046°17'0 0.0
2017-Nov-18 10:46S 23°58' W 046°17'0 0.0
2017-Nov-18 10:25S 23°58' W 046°17'0 0.0
2017-Nov-18 09:58S 23°58' W 046°17'0 0.0
2017-Nov-18 09:13S 23°58' W 046°17'0 0.0
2017-Nov-18 08:55S 23°58' W 046°17'0 0.0
2017-Nov-18 08:28S 23°58' W 046°17'0 0.0
2017-Nov-18 07:49S 23°58' W 046°17'0 0.0
2017-Nov-18 07:28S 23°58' W 046°17'0 0.0
2017-Nov-18 06:52S 23°58' W 046°17'0 0.0
2017-Nov-18 06:25S 23°58' W 046°17'0 0.0
2017-Nov-18 05:58S 23°58' W 046°17'0 0.0
2017-Nov-18 05:28S 23°58' W 046°17'0 0.0
2017-Nov-18 04:58S 23°58' W 046°17'0 0.0
2017-Nov-18 04:25S 23°58' W 046°17'0 0.0
2017-Nov-18 03:58S 23°58' W 046°17'0 0.0
2017-Nov-18 03:13S 23°58' W 046°17'0 0.0
2017-Nov-18 02:58S 23°58' W 046°17'0 0.0
2017-Nov-18 02:25S 23°58' W 046°17'0 0.0
2017-Nov-18 01:46S 23°58' W 046°17'0 0.0
2017-Nov-18 01:28S 23°58' W 046°17'0 0.0
2017-Nov-18 00:49S 23°58' W 046°17'0 0.0
2017-Nov-18 00:25S 23°58' W 046°17'0 0.0
2017-Nov-17 23:49S 23°58' W 046°17'0 0.0
2017-Nov-17 23:25S 23°58' W 046°17'0 0.0
2017-Nov-17 22:49S 23°58' W 046°17'0 0.0
2017-Nov-17 22:25S 23°58' W 046°17'0 0.0
2017-Nov-17 21:55S 23°58' W 046°17'0 0.0
2017-Nov-17 21:16S 23°58' W 046°17'0 0.0
2017-Nov-17 20:55S 23°58' W 046°17'0 0.0
2017-Nov-17 19:31S 23°58' W 046°17'0 0.0
2017-Nov-17 19:25S 23°58' W 046°17'0 0.0
2017-Nov-17 18:52S 23°58' W 046°17'0 0.0
2017-Nov-17 18:22S 23°58' W 046°17'0 0.0
2017-Nov-17 17:55S 23°58' W 046°17'0 0.0
2017-Nov-17 17:16S 23°58' W 046°17'0 0.0
2017-Nov-17 16:55S 23°58' W 046°17'0 0.0
2017-Nov-17 16:25S 23°58' W 046°17'0 0.0
2017-Nov-17 15:37S 23°58' W 046°17'0 0.0
2017-Nov-17 15:19S 23°58' W 046°17'0 0.0
2017-Nov-17 14:43S 23°58' W 046°17'0 0.0
2017-Nov-17 14:25S 23°58' W 046°17'0 0.0
2017-Nov-17 13:49S 23°58' W 046°17'0 0.0
2017-Nov-17 13:25S 23°58' W 046°17'0 0.0
2017-Nov-17 12:49S 23°58' W 046°17'0 0.0
2017-Nov-17 11:13S 23°58' W 046°17'0 0.0
2017-Nov-17 10:55S 23°58' W 046°17'0 0.0
2017-Nov-17 10:25S 23°58' W 046°17'0 0.0
2017-Nov-17 09:37S 23°58' W 046°17'0 0.0
2017-Nov-17 09:22S 23°58' W 046°17'0 0.0
2017-Nov-17 08:55S 23°58' W 046°17'0 0.0
2017-Nov-17 04:37S 23°58' W 046°17'0 0.0
2017-Nov-17 04:25S 23°58' W 046°17'0 0.0
2017-Nov-17 03:55S 23°58' W 046°17'0 0.0
2017-Nov-17 02:55S 23°58' W 046°17'0 0.0
2017-Nov-17 02:25S 23°58' W 046°17'0 0.0
2017-Nov-17 01:55S 23°58' W 046°17'0 0.0
2017-Nov-17 01:25S 23°58' W 046°17'0 0.0
2017-Nov-17 00:55S 23°58' W 046°17'0 0.0
2017-Nov-17 00:28S 23°58' W 046°17'0 0.0
2017-Nov-16 23:55S 23°58' W 046°17'0 0.0
2017-Nov-16 23:25S 23°58' W 046°17'0 0.0
2017-Nov-16 22:55S 23°58' W 046°17'0 0.0
2017-Nov-16 22:25S 23°58' W 046°17'0 0.0
2017-Nov-16 21:55S 23°58' W 046°17'0 0.0
2017-Nov-16 21:22S 23°58' W 046°17'0 0.0
2017-Nov-16 20:49S 23°58' W 046°17'0 0.0
2017-Nov-16 20:25S 23°58' W 046°17'0 0.0
2017-Nov-16 19:31S 23°58' W 046°17'0 0.1
2017-Nov-16 19:25S 23°58' W 046°17'0 0.0
2017-Nov-16 18:37S 23°58' W 046°17'0 0.0
2017-Nov-16 18:25S 23°58' W 046°17'0 0.0
2017-Nov-16 17:58S 23°58' W 046°17'0 0.0
2017-Nov-16 17:25S 23°58' W 046°17'0 0.0
2017-Nov-16 16:55S 23°58' W 046°17'0 0.0
2017-Nov-16 16:25S 23°58' W 046°17'0 0.0
2017-Nov-16 15:46S 23°58' W 046°17'0 0.0
2017-Nov-16 15:25S 23°58' W 046°17'0 0.0
2017-Nov-16 14:43S 23°58' W 046°17'0 0.0
2017-Nov-16 14:25S 23°58' W 046°17'0 0.0
2017-Nov-16 13:55S 23°58' W 046°17'0 0.0
2017-Nov-16 13:19S 23°58' W 046°17'0 0.0
2017-Nov-16 12:49S 23°58' W 046°17'0 0.0
2017-Nov-16 12:25S 23°58' W 046°17'0 0.0
2017-Nov-16 11:43S 23°58' W 046°17'0 0.0
2017-Nov-16 11:22S 23°58' W 046°17'0 0.0
2017-Nov-16 10:49S 23°58' W 046°17'0 0.0
2017-Nov-16 10:25S 23°58' W 046°17'0 0.0
2017-Nov-16 09:58S 23°58' W 046°17'0 0.0
2017-Nov-16 09:28S 23°58' W 046°17'0 0.0
2017-Nov-16 08:55S 23°58' W 046°17'0 0.0
2017-Nov-16 08:16S 23°58' W 046°17'0 0.0
2017-Nov-16 07:58S 23°58' W 046°17'0 0.0
2017-Nov-16 07:25S 23°58' W 046°17'0 0.0
2017-Nov-16 06:49S 23°58' W 046°17'0 0.0
2017-Nov-16 06:22S 23°58' W 046°17'0 0.0
2017-Nov-16 05:43S 23°58' W 046°17'0 0.0
2017-Nov-16 05:19S 23°58' W 046°17'0 0.0
2017-Nov-16 04:55S 23°58' W 046°17'0 0.0
2017-Nov-16 04:16S 23°58' W 046°17'0 0.0
2017-Nov-15 20:25S 23°58' W 046°17'0 0.0
2017-Nov-15 19:58S 23°58' W 046°17'0 0.0
2017-Nov-15 19:28S 23°58' W 046°17'0 0.0
2017-Nov-15 18:49S 23°58' W 046°17'0 0.0
2017-Nov-15 18:28S 23°58' W 046°17'0 0.0
2017-Nov-15 17:58S 23°58' W 046°17'0 0.0
2017-Nov-15 17:22S 23°58' W 046°17'0 0.0
2017-Nov-15 16:43S 23°58' W 046°17'0 0.0
2017-Nov-15 16:19S 23°58' W 046°17'0 0.0
2017-Nov-15 14:25S 23°58' W 046°17'0 0.0
2017-Nov-15 12:37S 23°58' W 046°17'0 0.0
2017-Nov-15 08:07S 23°58' W 046°17'0 0.0
2017-Nov-14 20:25S 23°58' W 046°17'0 0.0
2017-Nov-14 19:51S 23°58' W 046°17'1 1.6
2017-Nov-14 19:30S 23°59' W 046°17'3 6.5
2017-Nov-14 19:00S 24°01' W 046°20'4 7.5
2017-Nov-14 18:30S 24°04' W 046°19'4 7.1
2017-Nov-14 18:00S 24°07' W 046°18'2 3.7
2017-Nov-14 17:26S 24°08' W 046°15'0 0.2
2017-Nov-14 16:56S 24°08' W 046°15'0 0.0
2017-Nov-14 16:26S 24°08' W 046°15'0 0.0
2017-Nov-14 15:56S 24°08' W 046°15'0 0.0
2017-Nov-14 15:26S 24°08' W 046°15'0 0.0
2017-Nov-14 14:59S 24°08' W 046°15'0 0.0
2017-Nov-14 14:26S 24°08' W 046°15'0 0.0
2017-Nov-14 13:56S 24°08' W 046°15'0 0.0
2017-Nov-14 13:26S 24°08' W 046°15'0 0.0
2017-Nov-14 12:56S 24°08' W 046°15'0 0.1
2017-Nov-14 12:29S 24°08' W 046°15'0 0.1
2017-Nov-14 11:56S 24°08' W 046°15'0 0.0
2017-Nov-14 11:20S 24°08' W 046°15'0 0.0
2017-Nov-14 10:53S 24°08' W 046°15'0 0.0
2017-Nov-14 10:26S 24°08' W 046°15'0 0.0
2017-Nov-14 09:44S 24°08' W 046°15'0 0.0
2017-Nov-14 09:26S 24°08' W 046°15'0 0.0
2017-Nov-14 08:56S 24°08' W 046°15'0 0.0
2017-Nov-14 08:26S 24°08' W 046°15'0 0.0
2017-Nov-14 07:56S 24°08' W 046°15'0 0.0
2017-Nov-14 07:29S 24°08' W 046°15'0 0.0
2017-Nov-14 06:56S 24°08' W 046°15'0 0.0
2017-Nov-14 06:26S 24°08' W 046°15'0 0.0
2017-Nov-14 05:56S 24°08' W 046°15'0 0.0
2017-Nov-14 05:29S 24°08' W 046°15'0 0.0
2017-Nov-14 04:56S 24°08' W 046°15'0 0.1
2017-Nov-14 04:29S 24°08' W 046°15'0 0.0
2017-Nov-14 03:53S 24°08' W 046°15'0 0.0
2017-Nov-14 03:29S 24°08' W 046°15'0 0.0
2017-Nov-14 02:56S 24°08' W 046°15'0 0.0
2017-Nov-14 02:29S 24°08' W 046°15'0 0.1
2017-Nov-14 01:56S 24°08' W 046°15'0 0.0
2017-Nov-14 01:29S 24°08' W 046°15'0 0.0
2017-Nov-14 00:56S 24°08' W 046°15'0 0.0
2017-Nov-14 00:29S 24°08' W 046°15'0 0.0
2017-Nov-13 23:44S 24°08' W 046°15'0 0.0
2017-Nov-13 23:26S 24°08' W 046°15'0 0.0
2017-Nov-13 22:56S 24°08' W 046°15'0 0.0
2017-Nov-13 22:26S 24°08' W 046°15'0 0.0
2017-Nov-13 21:59S 24°08' W 046°15'0 0.0
2017-Nov-13 01:56S 24°08' W 046°15'0 0.0
2017-Nov-13 01:29S 24°08' W 046°15'0 0.0
2017-Nov-13 00:59S 24°08' W 046°15'0 0.0
2017-Nov-13 00:26S 24°08' W 046°15'0 0.0
2017-Nov-12 23:56S 24°08' W 046°15'0 0.0
2017-Nov-12 23:26S 24°08' W 046°15'0 0.0
2017-Nov-12 22:59S 24°08' W 046°15'0 0.0
2017-Nov-12 22:26S 24°08' W 046°15'0 0.0
2017-Nov-12 21:56S 24°08' W 046°15'  

Dump ship's entire track history